sensor_id;sensor_type;location;lat;lon;timestamp;pressure;altitude;pressure_sealevel;temperature;humidity
48386;BME280;34644;47.964;7.982;2024-02-28T00:02:34;96528.41;;;17.27;58.46
48386;BME280;34644;47.964;7.982;2024-02-28T00:09:34;96523.88;;;17.27;58.61
48386;BME280;34644;47.964;7.982;2024-02-28T00:16:34;96522.78;;;17.28;58.47
48386;BME280;34644;47.964;7.982;2024-02-28T00:23:34;96522.00;;;17.28;58.39
48386;BME280;34644;47.964;7.982;2024-02-28T00:30:35;96525.16;;;17.30;58.39
48386;BME280;34644;47.964;7.982;2024-02-28T00:37:35;96532.38;;;17.29;58.31
48386;BME280;34644;47.964;7.982;2024-02-28T00:44:35;96532.38;;;17.29;58.30
48386;BME280;34644;47.964;7.982;2024-02-28T00:51:35;96531.31;;;17.30;58.36
48386;BME280;34644;47.964;7.982;2024-02-28T00:58:37;96533.69;;;17.32;58.30
48386;BME280;34644;47.964;7.982;2024-02-28T01:05:38;96534.75;;;17.31;58.33
48386;BME280;34644;47.964;7.982;2024-02-28T01:12:39;96542.47;;;17.32;58.25
48386;BME280;34644;47.964;7.982;2024-02-28T01:19:39;96553.13;;;17.32;58.28
48386;BME280;34644;47.964;7.982;2024-02-28T01:26:39;96543.25;;;17.33;58.14
48386;BME280;34644;47.964;7.982;2024-02-28T01:33:40;96544.84;;;17.34;58.28
48386;BME280;34644;47.964;7.982;2024-02-28T01:40:46;96547.50;;;17.34;58.10
48386;BME280;34644;47.964;7.982;2024-02-28T01:47:46;96546.16;;;17.36;58.05
48386;BME280;34644;47.964;7.982;2024-02-28T01:54:47;96550.69;;;17.36;58.19
48386;BME280;34644;47.964;7.982;2024-02-28T02:01:47;96552.56;;;17.35;58.08
48386;BME280;34644;47.964;7.982;2024-02-28T02:08:47;96561.63;;;17.34;58.13
48386;BME280;34644;47.964;7.982;2024-02-28T02:15:48;96580.00;;;17.36;58.03
48386;BME280;34644;47.964;7.982;2024-02-28T02:22:48;96586.91;;;17.37;58.03
48386;BME280;34644;47.964;7.982;2024-02-28T02:29:48;96586.13;;;17.36;57.92
48386;BME280;34644;47.964;7.982;2024-02-28T02:36:49;96593.03;;;17.38;57.89
48386;BME280;34644;47.964;7.982;2024-02-28T02:43:49;96594.13;;;17.36;57.94
48386;BME280;34644;47.964;7.982;2024-02-28T02:50:49;96594.13;;;17.36;57.99
48386;BME280;34644;47.964;7.982;2024-02-28T02:57:50;96597.56;;;17.37;57.97
48386;BME280;34644;47.964;7.982;2024-02-28T03:04:50;96613.56;;;17.37;57.66
48386;BME280;34644;47.964;7.982;2024-02-28T03:11:50;96619.94;;;17.36;57.79
48386;BME280;34644;47.964;7.982;2024-02-28T03:18:51;96626.88;;;17.37;57.72
48386;BME280;34644;47.964;7.982;2024-02-28T03:25:51;96644.72;;;17.36;57.75
48386;BME280;34644;47.964;7.982;2024-02-28T03:32:51;96645.53;;;17.37;57.73
48386;BME280;34644;47.964;7.982;2024-02-28T03:39:52;96650.34;;;17.35;57.63
48386;BME280;34644;47.964;7.982;2024-02-28T03:46:52;96659.13;;;17.35;57.72
48386;BME280;34644;47.964;7.982;2024-02-28T03:53:52;96669.78;;;17.35;57.64
48386;BME280;34644;47.964;7.982;2024-02-28T04:00:52;96660.19;;;17.34;57.65
48386;BME280;34644;47.964;7.982;2024-02-28T04:07:52;96668.97;;;17.35;57.68
48386;BME280;34644;47.964;7.982;2024-02-28T04:14:53;96661.25;;;17.33;57.72
48386;BME280;34644;47.964;7.982;2024-02-28T04:21:53;96660.72;;;17.31;57.70
48386;BME280;34644;47.964;7.982;2024-02-28T04:28:53;96672.97;;;17.32;57.63
48386;BME280;34644;47.964;7.982;2024-02-28T04:35:53;96684.69;;;17.31;57.63
48386;BME280;34644;47.964;7.982;2024-02-28T04:42:54;96698.00;;;17.31;57.72
48386;BME280;34644;47.964;7.982;2024-02-28T04:49:54;96699.66;;;17.27;57.98
48386;BME280;34644;47.964;7.982;2024-02-28T04:56:54;96711.38;;;17.26;58.23
48386;BME280;34644;47.964;7.982;2024-02-28T05:03:55;96700.75;;;17.21;58.30
48386;BME280;34644;47.964;7.982;2024-02-28T05:10:55;96707.94;;;17.15;58.69
48386;BME280;34644;47.964;7.982;2024-02-28T05:17:55;96727.41;;;17.11;58.92
48386;BME280;34644;47.964;7.982;2024-02-28T05:24:55;96718.91;;;17.09;58.85
48386;BME280;34644;47.964;7.982;2024-02-28T05:31:56;96726.13;;;17.03;59.26
48386;BME280;34644;47.964;7.982;2024-02-28T05:38:57;96725.56;;;17.01;59.51
48386;BME280;34644;47.964;7.982;2024-02-28T05:45:57;96742.38;;;17.02;59.35
48386;BME280;34644;47.964;7.982;2024-02-28T05:52:57;96743.94;;;17.03;59.26
48386;BME280;34644;47.964;7.982;2024-02-28T05:59:58;96750.63;;;17.00;59.57
48386;BME280;34644;47.964;7.982;2024-02-28T06:06:58;96760.47;;;16.99;59.47
48386;BME280;34644;47.964;7.982;2024-02-28T06:13:59;96765.25;;;17.03;59.46
48386;BME280;34644;47.964;7.982;2024-02-28T06:20:59;96783.63;;;17.04;59.36
48386;BME280;34644;47.964;7.982;2024-02-28T06:28:00;96795.09;;;17.05;59.27
48386;BME280;34644;47.964;7.982;2024-02-28T06:35:02;96798.53;;;17.05;59.27
48386;BME280;34644;47.964;7.982;2024-02-28T06:42:04;96815.28;;;17.06;59.12
48386;BME280;34644;47.964;7.982;2024-02-28T06:49:04;96813.16;;;17.08;59.06
48386;BME280;34644;47.964;7.982;2024-02-28T06:56:05;96818.47;;;17.08;58.88
48386;BME280;34644;47.964;7.982;2024-02-28T07:03:05;96834.47;;;17.08;58.85
48386;BME280;34644;47.964;7.982;2024-02-28T07:10:05;96839.78;;;17.08;58.79
48386;BME280;34644;47.964;7.982;2024-02-28T07:17:06;96846.72;;;17.04;58.84
48386;BME280;34644;47.964;7.982;2024-02-28T07:24:07;96843.53;;;17.02;58.84
48386;BME280;34644;47.964;7.982;2024-02-28T07:31:07;96856.03;;;17.01;58.86
48386;BME280;34644;47.964;7.982;2024-02-28T07:38:14;96864.28;;;16.99;58.94
48386;BME280;34644;47.964;7.982;2024-02-28T07:45:14;96866.97;;;16.99;58.94
48386;BME280;34644;47.964;7.982;2024-02-28T07:52:14;96875.22;;;16.98;58.96
48386;BME280;34644;47.964;7.982;2024-02-28T07:59:14;96878.69;;;16.98;59.00
48386;BME280;34644;47.964;7.982;2024-02-28T08:06:15;96876.28;;;16.97;59.02
48386;BME280;34644;47.964;7.982;2024-02-28T08:13:16;96886.41;;;16.95;59.04
48386;BME280;34644;47.964;7.982;2024-02-28T08:20:16;96890.94;;;16.94;59.07
48386;BME280;34644;47.964;7.982;2024-02-28T08:27:16;96890.41;;;16.92;59.19
48386;BME280;34644;47.964;7.982;2024-02-28T08:34:17;96891.47;;;16.91;59.22
48386;BME280;34644;47.964;7.982;2024-02-28T08:41:17;96907.69;;;16.90;59.26
48386;BME280;34644;47.964;7.982;2024-02-28T08:48:18;96911.16;;;16.90;59.34
48386;BME280;34644;47.964;7.982;2024-02-28T08:55:18;96916.47;;;16.90;59.37
48386;BME280;34644;47.964;7.982;2024-02-28T09:02:21;96918.34;;;16.90;59.27
48386;BME280;34644;47.964;7.982;2024-02-28T09:09:21;96925.53;;;16.89;59.29
48386;BME280;34644;47.964;7.982;2024-02-28T09:16:22;96918.63;;;16.88;59.26
48386;BME280;34644;47.964;7.982;2024-02-28T09:23:22;96917.81;;;16.88;59.21
48386;BME280;34644;47.964;7.982;2024-02-28T09:30:22;96915.94;;;16.88;59.08
48386;BME280;34644;47.964;7.982;2024-02-28T09:37:23;96917.81;;;16.88;59.23
48386;BME280;34644;47.964;7.982;2024-02-28T09:44:27;96922.88;;;16.89;59.25
48386;BME280;34644;47.964;7.982;2024-02-28T09:51:27;96928.22;;;16.89;59.30
48386;BME280;34644;47.964;7.982;2024-02-28T09:58:28;96922.88;;;16.89;59.31
48386;BME280;34644;47.964;7.982;2024-02-28T10:05:30;96917.56;;;16.89;59.52
48386;BME280;34644;47.964;7.982;2024-02-28T10:12:30;96913.56;;;16.87;59.59
48386;BME280;34644;47.964;7.982;2024-02-28T10:19:31;96918.09;;;16.86;59.92
48386;BME280;34644;47.964;7.982;2024-02-28T10:26:31;96925.00;;;16.87;59.94
48386;BME280;34644;47.964;7.982;2024-02-28T10:33:35;96925.00;;;16.87;60.02
48386;BME280;34644;47.964;7.982;2024-02-28T10:40:36;96927.38;;;16.89;60.03
48386;BME280;34644;47.964;7.982;2024-02-28T10:47:39;96933.81;;;16.88;60.18
48386;BME280;34644;47.964;7.982;2024-02-28T10:54:40;96929.00;;;16.90;60.28
48386;BME280;34644;47.964;7.982;2024-02-28T11:01:43;96935.09;;;16.90;60.43
48386;BME280;34644;47.964;7.982;2024-02-28T11:08:45;96926.06;;;16.91;60.44
48386;BME280;34644;47.964;7.982;2024-02-28T11:15:45;96924.19;;;16.92;60.54
48386;BME280;34644;47.964;7.982;2024-02-28T11:22:46;96927.69;;;16.92;60.74
48386;BME280;34644;47.964;7.982;2024-02-28T11:29:46;96923.16;;;16.93;60.80
48386;BME280;34644;47.964;7.982;2024-02-28T11:36:50;96927.69;;;16.92;60.97
48386;BME280;34644;47.964;7.982;2024-02-28T11:43:50;96932.47;;;16.95;60.92
48386;BME280;34644;47.964;7.982;2024-02-28T11:50:50;96923.66;;;16.95;61.01
48386;BME280;34644;47.964;7.982;2024-02-28T11:57:51;96927.94;;;16.96;61.13
48386;BME280;34644;47.964;7.982;2024-02-28T12:04:51;96933.25;;;16.96;61.24
48386;BME280;34644;47.964;7.982;2024-02-28T12:11:52;96933.53;;;16.94;61.13
48386;BME280;34644;47.964;7.982;2024-02-28T12:18:53;96928.19;;;16.94;61.25
48386;BME280;34644;47.964;7.982;2024-02-28T12:25:53;96920.22;;;16.94;61.09
48386;BME280;34644;47.964;7.982;2024-02-28T12:32:53;96914.88;;;16.94;60.98
48386;BME280;34644;47.964;7.982;2024-02-28T12:39:53;96912.75;;;16.96;60.98
48386;BME280;34644;47.964;7.982;2024-02-28T12:46:54;96901.56;;;16.94;61.13
48386;BME280;34644;47.964;7.982;2024-02-28T12:53:54;96899.72;;;16.95;61.05
48386;BME280;34644;47.964;7.982;2024-02-28T13:00:56;96897.88;;;16.95;61.02
48386;BME280;34644;47.964;7.982;2024-02-28T13:07:56;96897.88;;;16.95;60.84
48386;BME280;34644;47.964;7.982;2024-02-28T13:14:56;96896.25;;;16.94;61.07
48386;BME280;34644;47.964;7.982;2024-02-28T13:21:57;96903.19;;;16.95;60.94
48386;BME280;34644;47.964;7.982;2024-02-28T13:28:57;96906.63;;;16.96;60.80
48386;BME280;34644;47.964;7.982;2024-02-28T13:35:58;96905.59;;;16.97;60.85
48386;BME280;34644;47.964;7.982;2024-02-28T13:42:58;96897.88;;;16.95;60.84
48386;BME280;34644;47.964;7.982;2024-02-28T13:49:59;96903.19;;;16.95;60.93
48386;BME280;34644;47.964;7.982;2024-02-28T13:56:59;96890.66;;;16.96;61.08
48386;BME280;34644;47.964;7.982;2024-02-28T14:03:59;96886.13;;;16.96;61.12
48386;BME280;34644;47.964;7.982;2024-02-28T14:10:59;96877.09;;;16.97;61.26
48386;BME280;34644;47.964;7.982;2024-02-28T14:18:00;96887.72;;;16.97;61.50
48386;BME280;34644;47.964;7.982;2024-02-28T14:25:00;96894.66;;;16.98;61.51
48386;BME280;34644;47.964;7.982;2024-02-28T14:32:00;96895.72;;;16.97;61.45
48386;BME280;34644;47.964;7.982;2024-02-28T14:39:01;96894.66;;;16.98;61.60
48386;BME280;34644;47.964;7.982;2024-02-28T14:46:01;96902.66;;;16.98;61.59
48386;BME280;34644;47.964;7.982;2024-02-28T14:53:02;96894.66;;;16.98;61.56
48386;BME280;34644;47.964;7.982;2024-02-28T15:00:03;96900.00;;;16.98;61.74
48386;BME280;34644;47.964;7.982;2024-02-28T15:07:08;96891.75;;;17.00;61.64
48386;BME280;34644;47.964;7.982;2024-02-28T15:14:08;96897.84;;;17.00;61.64
48386;BME280;34644;47.964;7.982;2024-02-28T15:21:08;96897.06;;;17.00;61.62
48386;BME280;34644;47.964;7.982;2024-02-28T15:28:09;96890.94;;;17.05;56.15
48386;BME280;34644;47.964;7.982;2024-02-28T15:35:09;96895.19;;;17.00;50.22
48386;BME280;34644;47.964;7.982;2024-02-28T15:42:11;96896.78;;;16.91;54.50
48386;BME280;34644;47.964;7.982;2024-02-28T15:49:11;96897.84;;;16.90;55.49
48386;BME280;34644;47.964;7.982;2024-02-28T15:56:11;96894.13;;;16.91;56.31
48386;BME280;34644;47.964;7.982;2024-02-28T16:03:12;96902.63;;;16.93;56.98
48386;BME280;34644;47.964;7.982;2024-02-28T16:10:12;96903.97;;;16.96;57.31
48386;BME280;34644;47.964;7.982;2024-02-28T16:17:12;96903.97;;;16.96;57.65
48386;BME280;34644;47.964;7.982;2024-02-28T16:24:15;96905.59;;;16.97;57.87
48386;BME280;34644;47.964;7.982;2024-02-28T16:31:16;96903.72;;;16.97;58.12
48386;BME280;34644;47.964;7.982;2024-02-28T16:38:16;96901.84;;;16.98;58.34
48386;BME280;34644;47.964;7.982;2024-02-28T16:45:16;96910.66;;;16.98;58.44
48386;BME280;34644;47.964;7.982;2024-02-28T16:52:16;96914.88;;;16.99;58.60
48386;BME280;34644;47.964;7.982;2024-02-28T16:59:17;96920.22;;;16.99;58.98
48386;BME280;34644;47.964;7.982;2024-02-28T17:06:17;96922.88;;;16.99;58.98
48386;BME280;34644;47.964;7.982;2024-02-28T17:13:18;96934.34;;;17.00;59.22
48386;BME280;34644;47.964;7.982;2024-02-28T17:20:18;96945.00;;;17.00;59.22
48386;BME280;34644;47.964;7.982;2024-02-28T17:27:20;96953.50;;;17.07;56.31
48386;BME280;34644;47.964;7.982;2024-02-28T17:34:20;96964.94;;;17.03;57.63
48386;BME280;34644;47.964;7.982;2024-02-28T17:41:21;96959.88;;;17.01;58.44
48386;BME280;34644;47.964;7.982;2024-02-28T17:48:21;96965.22;;;17.01;59.05
48386;BME280;34644;47.964;7.982;2024-02-28T17:55:21;96963.88;;;17.04;59.55
48386;BME280;34644;47.964;7.982;2024-02-28T18:02:22;96973.47;;;17.05;59.89
48386;BME280;34644;47.964;7.982;2024-02-28T18:09:24;96975.31;;;17.04;60.08
48386;BME280;34644;47.964;7.982;2024-02-28T18:16:24;96973.75;;;17.08;60.28
48386;BME280;34644;47.964;7.982;2024-02-28T18:23:25;96977.19;;;17.09;60.49
48386;BME280;34644;47.964;7.982;2024-02-28T18:44:59;96977.19;;;17.24;53.85
48386;BME280;34644;47.964;7.982;2024-02-28T18:51:59;96974.00;;;17.22;54.13
48386;BME280;34644;47.964;7.982;2024-02-28T18:59:00;96967.59;;;17.18;53.70
48386;BME280;34644;47.964;7.982;2024-02-28T19:06:00;96969.75;;;17.16;53.69
48386;BME280;34644;47.964;7.982;2024-02-28T19:13:00;96972.94;;;17.13;54.06
48386;BME280;34644;47.964;7.982;2024-02-28T19:20:01;96976.13;;;17.10;53.48
48386;BME280;34644;47.964;7.982;2024-02-28T19:27:01;96968.69;;;17.07;53.21
48386;BME280;34644;47.964;7.982;2024-02-28T19:34:01;96968.16;;;17.05;53.17
48386;BME280;34644;47.964;7.982;2024-02-28T19:41:01;96967.59;;;17.03;52.89
48386;BME280;34644;47.964;7.982;2024-02-28T19:48:02;96956.69;;;16.99;52.83
48386;BME280;34644;47.964;7.982;2024-02-28T19:55:02;96959.88;;;16.96;52.93
48386;BME280;34644;47.964;7.982;2024-02-28T20:02:05;96967.34;;;16.94;52.72
48386;BME280;34644;47.964;7.982;2024-02-28T20:09:05;96976.66;;;16.91;52.73
48386;BME280;34644;47.964;7.982;2024-02-28T20:16:07;96960.41;;;16.88;52.82
48386;BME280;34644;47.964;7.982;2024-02-28T20:23:07;96965.19;;;16.86;52.43
48386;BME280;34644;47.964;7.982;2024-02-28T20:30:07;96965.72;;;16.82;52.14
48386;BME280;34644;47.964;7.982;2024-02-28T20:37:07;96957.19;;;16.80;52.17
48386;BME280;34644;47.964;7.982;2024-02-28T20:44:08;96956.91;;;16.77;51.90
48386;BME280;34644;47.964;7.982;2024-02-28T20:51:11;96954.50;;;16.75;51.65
48386;BME280;34644;47.964;7.982;2024-02-28T20:58:11;96939.88;;;16.73;51.69
48386;BME280;34644;47.964;7.982;2024-02-28T21:05:11;96935.63;;;16.72;51.59
48386;BME280;34644;47.964;7.982;2024-02-28T21:12:13;96923.91;;;16.73;51.82
48386;BME280;34644;47.964;7.982;2024-02-28T21:19:14;96926.81;;;16.71;51.47
48386;BME280;34644;47.964;7.982;2024-02-28T21:26:14;96923.63;;;16.69;50.92
48386;BME280;34644;47.964;7.982;2024-02-28T21:33:14;96930.56;;;16.70;51.70
48386;BME280;34644;47.964;7.982;2024-02-28T21:40:15;96920.19;;;16.74;52.78
48386;BME280;34644;47.964;7.982;2024-02-28T21:47:15;96920.72;;;16.76;53.20
48386;BME280;34644;47.964;7.982;2024-02-28T21:54:15;96922.56;;;16.80;53.80
48386;BME280;34644;47.964;7.982;2024-02-28T22:01:16;96915.44;;;16.86;53.96
48386;BME280;34644;47.964;7.982;2024-02-28T22:08:16;96900.78;;;16.89;54.12
48386;BME280;34644;47.964;7.982;2024-02-28T22:15:17;96907.16;;;16.93;54.64
48386;BME280;34644;47.964;7.982;2024-02-28T22:22:17;96901.31;;;16.96;55.01
48386;BME280;34644;47.964;7.982;2024-02-28T22:29:18;96900.78;;;16.99;55.30
48386;BME280;34644;47.964;7.982;2024-02-28T22:36:22;96897.59;;;17.02;55.75
48386;BME280;34644;47.964;7.982;2024-02-28T22:43:22;96898.09;;;17.04;56.22
48386;BME280;34644;47.964;7.982;2024-02-28T22:50:22;96889.06;;;17.05;56.21
48386;BME280;34644;47.964;7.982;2024-02-28T22:57:22;96873.88;;;17.06;56.50
48386;BME280;34644;47.964;7.982;2024-02-28T23:04:23;96878.66;;;17.09;56.60
48386;BME280;34644;47.964;7.982;2024-02-28T23:11:23;96869.63;;;17.10;56.89
48386;BME280;34644;47.964;7.982;2024-02-28T23:18:23;96847.22;;;17.11;56.96
48386;BME280;34644;47.964;7.982;2024-02-28T23:25:24;96845.38;;;17.11;57.26
48386;BME280;34644;47.964;7.982;2024-02-28T23:32:24;96843.25;;;17.13;57.67
48386;BME280;34644;47.964;7.982;2024-02-28T23:39:24;96844.03;;;17.14;57.66
48386;BME280;34644;47.964;7.982;2024-02-28T23:46:25;96839.25;;;17.16;57.69
48386;BME280;34644;47.964;7.982;2024-02-28T23:53:25;96836.59;;;17.16;57.83
